Time;durP1;ratioP1;P1;durP2;ratioP2;P2;SDS_P1;SDS_P2;PMS_P1;PMS_P2;Temp;Humidity;BMP_temperature;BMP_pressure;BME280_temperature;BME280_humidity;BME280_pressure;Samples;Min_cycle;Max_cycle;Signal;HPM_P1;HPM_P2
2021/04/11 00:00:35;;;;;;;4.00;2.95;;;;;;;10.71;74.87;99410.94;5092944;28;20044;-63
2021/04/11 00:03:04;;;;;;;4.32;3.25;;;;;;;10.68;74.24;99401.28;5092521;28;20527;-62
2021/04/11 00:05:34;;;;;;;4.22;3.10;;;;;;;10.61;74.79;99398.25;5088864;28;20540;-62
2021/04/11 00:08:03;;;;;;;5.25;2.95;;;;;;;10.67;74.50;99401.63;5072204;28;20493;-62
2021/04/11 00:10:32;;;;;;;5.47;3.20;;;;;;;10.74;74.40;99399.09;5072281;28;20055;-63
2021/04/11 00:13:00;;;;;;;3.92;3.10;;;;;;;10.77;74.21;99393.66;5072188;28;20061;-63
2021/04/11 00:15:29;;;;;;;4.88;3.20;;;;;;;10.84;74.36;99400.66;5072128;28;20056;-63
2021/04/11 00:17:56;;;;;;;6.60;3.47;;;;;;;10.88;73.79;99394.06;5075129;28;20075;-63
2021/04/11 00:20:23;;;;;;;4.82;3.13;;;;;;;10.86;73.20;99392.78;5092514;28;20051;-63
2021/04/11 00:22:51;;;;;;;7.57;3.50;;;;;;;10.84;73.10;99386.72;5092411;28;20052;-63
2021/04/11 00:25:22;;;;;;;4.35;3.03;;;;;;;10.92;73.21;99383.84;5091725;28;20044;-63
2021/04/11 00:27:49;;;;;;;4.07;2.50;;;;;;;11.00;72.46;99384.09;5092032;28;20059;-63
2021/04/11 00:30:17;;;;;;;4.97;3.00;;;;;;;10.95;72.68;99388.72;5092437;28;20614;-63
2021/04/11 00:32:46;;;;;;;7.78;3.20;;;;;;;10.89;72.85;99365.03;5091967;28;20074;-63
2021/04/11 00:35:14;;;;;;;6.03;3.45;;;;;;;10.97;72.70;99372.47;5092068;28;20052;-63
2021/04/11 00:37:41;;;;;;;6.03;3.33;;;;;;;10.88;72.53;99366.19;5092020;28;20052;-63
2021/04/11 00:40:14;;;;;;;4.28;2.60;;;;;;;10.95;72.27;99363.66;5091442;28;20059;-63
2021/04/11 00:42:44;;;;;;;4.82;3.15;;;;;;;10.96;72.57;99356.94;5092024;28;20052;-63
2021/04/11 00:45:22;;;;;;;6.60;3.10;;;;;;;10.96;72.70;99356.94;5092589;28;20044;-64
2021/04/11 00:47:49;;;;;;;4.50;2.97;;;;;;;11.01;72.46;99349.53;5091705;28;20048;-63
2021/04/11 00:50:17;;;;;;;7.55;3.63;;;;;;;11.06;72.62;99358.44;5092003;28;20048;-63
2021/04/11 00:52:45;;;;;;;6.95;3.28;;;;;;;11.10;72.37;99355.78;5093369;28;20056;-63
2021/04/11 00:55:19;;;;;;;6.65;2.83;;;;;;;11.16;72.18;99338.50;5094598;28;20404;-63
2021/04/11 00:57:47;;;;;;;4.05;3.00;;;;;;;11.17;72.09;99336.50;5095976;28;20429;-63
2021/04/11 01:00:15;;;;;;;4.43;3.08;;;;;;;11.12;71.89;99343.13;5095382;28;20048;-63
2021/04/11 01:02:42;;;;;;;4.38;2.90;;;;;;;11.18;72.13;99338.97;5095804;28;20401;-63
2021/04/11 01:05:15;;;;;;;4.28;2.92;;;;;;;11.14;72.00;99360.31;5095281;28;20052;-63
2021/04/11 01:07:45;;;;;;;4.88;2.97;;;;;;;11.10;72.66;99328.72;5094565;28;20066;-63
2021/04/11 01:10:14;;;;;;;3.28;2.78;;;;;;;11.13;72.47;99349.53;5075154;28;20049;-63
2021/04/11 01:12:41;;;;;;;4.88;3.20;;;;;;;11.07;73.16;99329.44;5074545;28;20052;-64
2021/04/11 01:15:17;;;;;;;5.28;3.72;;;;;;;11.06;74.48;99327.00;5075462;28;20056;-64
2021/04/11 01:17:44;;;;;;;6.20;3.45;;;;;;;11.09;73.53;99331.88;5090226;28;20044;-64
2021/04/11 01:20:14;;;;;;;4.90;3.33;;;;;;;11.13;73.81;99332.81;5095135;28;20477;-63
2021/04/11 01:22:55;;;;;;;3.95;3.47;;;;;;;11.08;73.68;99335.81;5094985;28;20070;-63
2021/04/11 01:25:28;;;;;;;5.10;3.55;;;;;;;11.12;73.72;99317.25;5095132;28;20063;-63
2021/04/11 01:27:57;;;;;;;4.40;3.42;;;;;;;11.15;73.64;99317.38;5094704;28;20044;-63
2021/04/11 01:30:27;;;;;;;5.53;3.10;;;;;;;11.08;73.68;99316.31;5094781;28;20044;-64
2021/04/11 01:32:55;;;;;;;4.97;3.53;;;;;;;11.13;73.61;99321.69;5094672;28;20056;-63
2021/04/11 01:35:24;;;;;;;4.25;3.80;;;;;;;11.08;73.99;99313.53;5094920;28;20052;-63
2021/04/11 01:37:52;;;;;;;5.18;3.72;;;;;;;11.09;74.09;99315.16;5094362;28;20060;-64
2021/04/11 01:40:25;;;;;;;6.30;4.13;;;;;;;11.11;74.29;99310.06;5093704;28;20051;-63
2021/04/11 01:42:54;;;;;;;6.63;3.83;;;;;;;11.09;74.13;99309.59;5094487;28;20056;-63
2021/04/11 01:45:22;;;;;;;3.03;1.80;;;;;;;11.11;73.23;99313.66;5094375;28;20331;-63
2021/04/11 01:47:51;;;;;;;6.55;3.83;;;;;;;11.07;74.45;99306.34;5094240;28;20052;-63
2021/04/11 01:50:18;;;;;;;5.13;3.63;;;;;;;11.10;74.62;99308.41;5094497;28;20059;-64
2021/04/11 01:52:45;;;;;;;4.30;3.50;;;;;;;11.13;74.43;99310.53;5095084;28;20048;-63
2021/04/11 01:55:14;;;;;;;4.97;3.60;;;;;;;11.09;74.37;99307.63;5093927;28;20059;-64
2021/04/11 01:57:42;;;;;;;5.95;3.63;;;;;;;11.10;74.26;99312.00;5093741;28;20412;-64
2021/04/11 02:00:17;;;;;;;6.22;4.03;;;;;;;11.13;74.25;99305.75;5094822;28;20048;-64
2021/04/11 02:02:44;;;;;;;5.15;3.30;;;;;;;11.15;73.88;99292.28;5094501;28;20044;-64
2021/04/11 02:05:18;;;;;;;5.78;3.38;;;;;;;11.18;73.67;99297.16;5092993;28;20400;-64
2021/04/11 02:07:46;;;;;;;4.47;3.42;;;;;;;11.19;73.56;99295.19;5094987;28;20059;-63
2021/04/11 02:10:17;;;;;;;4.85;3.08;;;;;;;11.27;73.18;99290.66;5093853;28;20056;-63
2021/04/11 02:12:46;;;;;;;5.07;3.10;;;;;;;11.28;72.73;99281.16;5093832;28;20055;-63
2021/04/11 02:15:18;;;;;;;4.57;3.00;;;;;;;11.25;72.75;99285.44;5093917;28;20504;-63
2021/04/11 02:17:46;;;;;;;4.38;2.97;;;;;;;11.33;72.64;99278.13;5094364;28;20056;-63
2021/04/11 02:20:14;;;;;;;4.78;2.88;;;;;;;11.36;72.22;99275.44;5094000;28;20393;-63
2021/04/11 02:22:42;;;;;;;3.97;2.85;;;;;;;11.37;72.05;99273.47;5094192;28;20052;-63
2021/04/11 02:25:14;;;;;;;5.07;2.90;;;;;;;11.38;72.40;99266.72;5094328;28;20044;-63
2021/04/11 02:27:42;;;;;;;3.78;2.90;;;;;;;11.41;72.35;99265.22;5094001;28;20051;-63
2021/04/11 02:30:13;;;;;;;3.83;2.58;;;;;;;11.49;71.57;99273.47;5094053;28;20051;-63
2021/04/11 02:32:40;;;;;;;5.15;2.65;;;;;;;11.43;71.97;99274.06;5093538;28;20059;-63
2021/04/11 02:35:12;;;;;;;4.47;3.10;;;;;;;11.51;71.87;99267.56;5093499;28;20055;-64
2021/04/11 02:37:43;;;;;;;4.55;2.90;;;;;;;11.55;71.88;99265.69;5093886;28;20048;-64
2021/04/11 02:40:18;;;;;;;5.03;2.75;;;;;;;11.50;71.92;99263.13;5092958;28;20063;-64
2021/04/11 02:42:45;;;;;;;3.28;2.72;;;;;;;11.55;71.67;99260.91;5093756;28;20060;-63
2021/04/11 02:45:17;;;;;;;3.83;2.60;;;;;;;11.54;71.80;99258.47;5093624;28;20477;-63
2021/04/11 02:47:45;;;;;;;5.00;3.15;;;;;;;11.56;71.99;99258.94;5093872;28;20059;-63
2021/04/11 02:50:14;;;;;;;4.90;3.17;;;;;;;11.62;71.53;99273.47;5093531;28;20048;-63
2021/04/11 02:52:45;;;;;;;4.45;2.65;;;;;;;11.57;71.49;99257.78;5092907;28;20044;-63
2021/04/11 02:55:14;;;;;;;3.78;2.50;;;;;;;11.59;71.44;99261.03;5093015;28;20059;-63
2021/04/11 02:57:41;;;;;;;3.75;2.80;;;;;;;11.64;71.31;99254.41;5093105;28;20373;-63
2021/04/11 03:00:11;;;;;;;3.65;2.50;;;;;;;11.64;71.34;99260.78;5092984;28;20055;-63
2021/04/11 03:02:39;;;;;;;3.92;3.08;;;;;;;11.70;71.28;99262.16;5092871;28;20052;-63
2021/04/11 03:05:07;;;;;;;3.45;2.67;;;;;;;11.76;71.03;99263.56;5092896;28;20059;-63
2021/04/11 03:07:42;;;;;;;3.30;2.17;;;;;;;11.77;71.20;99272.72;5072595;28;20052;-63
2021/04/11 03:10:16;;;;;;;4.85;2.30;;;;;;;11.71;71.10;99269.34;5072821;28;20489;-63
2021/04/11 03:12:44;;;;;;;3.28;2.72;;;;;;;11.67;71.38;99262.84;5073154;28;20048;-63
2021/04/11 03:15:13;;;;;;;4.80;2.80;;;;;;;11.74;71.45;99271.47;5073141;28;20493;-63
2021/04/11 03:17:42;;;;;;;4.00;2.95;;;;;;;11.76;71.41;99274.72;5092405;28;20063;-63
2021/04/11 03:20:14;;;;;;;3.92;2.90;;;;;;;11.71;71.67;99268.53;5092535;28;20056;-63
2021/04/11 03:22:41;;;;;;;3.70;3.03;;;;;;;11.75;71.94;99270.28;5092773;28;20047;-63
2021/04/11 03:25:11;;;;;;;5.70;3.15;;;;;;;11.75;71.84;99278.66;5091897;28;20060;-63
2021/04/11 03:27:43;;;;;;;4.82;3.72;;;;;;;11.75;72.24;99275.84;5092932;28;20058;-63
2021/04/11 03:30:19;;;;;;;5.65;3.70;;;;;;;11.72;72.79;99282.16;5093045;28;20044;-63
2021/04/11 03:32:51;;;;;;;5.35;4.25;;;;;;;11.68;73.61;99283.22;5092526;28;20461;-63
2021/04/11 03:35:22;;;;;;;5.38;4.80;;;;;;;11.60;73.94;99287.75;5093468;28;20393;-63
2021/04/11 03:37:50;;;;;;;7.57;4.68;;;;;;;11.59;74.40;99283.34;5092646;28;20052;-63
2021/04/11 03:40:20;;;;;;;5.57;4.78;;;;;;;11.52;74.64;99289.47;5093064;28;20063;-63
2021/04/11 03:42:51;;;;;;;5.75;5.03;;;;;;;11.51;74.96;99292.66;5092733;28;20417;-63
2021/04/11 03:45:19;;;;;;;6.40;4.75;;;;;;;11.50;74.84;99300.19;5092310;28;20044;-63
2021/04/11 03:47:51;;;;;;;5.68;4.88;;;;;;;11.51;75.23;99306.59;5092483;28;20052;-63
2021/04/11 03:50:24;;;;;;;7.18;5.85;;;;;;;11.46;75.53;99302.03;5092521;28;20477;-63
2021/04/11 03:52:58;;;;;;;5.63;4.90;;;;;;;11.43;75.65;99304.72;5091972;28;20118;-63
2021/04/11 03:55:29;;;;;;;8.48;6.30;;;;;;;11.41;76.28;99301.47;5092684;28;20055;-63
2021/04/11 03:58:00;;;;;;;9.68;6.00;;;;;;;11.40;76.70;99311.00;5092639;28;20056;-63
2021/04/11 04:00:30;;;;;;;6.85;5.68;;;;;;;11.42;76.09;99305.88;5093073;28;20064;-63
2021/04/11 04:03:06;;;;;;;8.48;5.72;;;;;;;11.37;76.77;99309.72;5092497;28;20412;-64
2021/04/11 04:05:36;;;;;;;8.27;6.32;;;;;;;11.41;76.57;99310.66;5092586;28;20393;-64
2021/04/11 04:08:04;;;;;;;7.38;6.10;;;;;;;11.41;76.81;99313.44;5089610;28;20071;-64
2021/04/11 04:10:35;;;;;;;9.25;6.45;;;;;;;11.41;76.94;99310.66;5092863;28;20052;-64
2021/04/11 04:13:10;;;;;;;8.27;6.90;;;;;;;11.46;77.04;99323.53;5092924;28;20055;-64
2021/04/11 04:15:45;;;;;;;9.52;7.10;;;;;;;11.50;77.35;99341.19;5092567;28;20071;-64
2021/04/11 04:18:35;;;;;;;10.13;7.00;;;;;;;11.52;77.13;99347.25;5092296;28;20048;-64
2021/04/11 04:21:11;;;;;;;9.75;6.70;;;;;;;11.55;76.33;99357.72;5079728;28;20386;-64
2021/04/11 04:23:46;;;;;;;11.00;8.15;;;;;;;11.53;76.74;99362.81;5075595;28;20048;-64
2021/04/11 04:26:34;;;;;;;8.15;7.18;;;;;;;11.54;75.57;99375.59;5092368;28;20378;-64
2021/04/11 04:29:14;;;;;;;8.67;7.23;;;;;;;11.50;74.98;99363.50;5093292;28;20048;-64
2021/04/11 04:31:49;;;;;;;;;;;;;;;11.42;74.86;99365.22;5096614;28;20057;-64
2021/04/11 04:34:25;;;;;;;12.35;9.02;;;;;;;11.35;74.89;99368.59;5096209;28;20010;-64
2021/04/11 04:37:06;;;;;;;11.30;9.23;;;;;;;11.34;74.75;99372.56;5095852;28;20059;-64
2021/04/11 04:39:42;;;;;;;11.50;8.68;;;;;;;11.33;74.87;99370.91;5095672;28;20055;-64
2021/04/11 04:42:16;;;;;;;13.07;9.45;;;;;;;11.32;75.27;99382.44;5095296;28;20044;-64
2021/04/11 04:44:54;;;;;;;12.50;9.05;;;;;;;11.35;74.74;99384.53;5095747;28;20059;-64
2021/04/11 04:47:34;;;;;;;10.55;8.60;;;;;;;11.36;73.98;99381.41;5095017;28;20044;-64
2021/04/11 04:50:09;;;;;;;;;;;;;;;11.32;73.66;99388.03;5096118;28;20405;-64
2021/04/11 04:52:36;;;;;;;12.40;9.13;;;;;;;11.26;73.68;99389.41;5095567;28;19990;-64
2021/04/11 04:55:08;;;;;;;10.30;8.73;;;;;;;11.26;73.72;99389.41;5095436;28;20075;-64
2021/04/11 04:57:39;;;;;;;9.93;8.50;;;;;;;11.22;73.08;99380.09;5095787;28;20378;-64
2021/04/11 05:00:10;;;;;;;10.02;8.57;;;;;;;11.21;72.94;99396.00;5095542;28;20058;-64
2021/04/11 05:02:44;;;;;;;10.60;9.13;;;;;;;11.21;72.79;99396.00;5095327;28;20048;-64
2021/04/11 05:05:15;;;;;;;11.48;10.02;;;;;;;11.13;72.83;99394.94;5095126;28;20412;-64
2021/04/11 05:07:48;;;;;;;11.35;9.27;;;;;;;11.05;72.03;99403.41;5074603;28;20053;-64
2021/04/11 05:10:21;;;;;;;12.25;9.32;;;;;;;11.03;72.01;99405.72;5074658;28;20060;-64
2021/04/11 05:12:56;;;;;;;10.93;9.13;;;;;;;10.96;71.13;99401.53;5075188;28;20060;-63
2021/04/11 05:15:27;;;;;;;11.50;9.05;;;;;;;10.87;71.07;99400.78;5075645;28;20490;-63
2021/04/11 05:17:59;;;;;;;10.85;8.75;;;;;;;10.84;71.44;99404.25;5095196;28;20063;-63
2021/04/11 05:20:32;;;;;;;9.20;7.90;;;;;;;10.82;71.07;99406.56;5095812;28;20071;-63
2021/04/11 05:23:09;;;;;;;9.48;7.65;;;;;;;10.77;70.87;99399.25;5094732;28;20044;-63
2021/04/11 05:25:41;;;;;;;10.20;8.48;;;;;;;10.79;70.88;99400.84;5094577;28;20412;-63
2021/04/11 05:28:12;;;;;;;8.82;6.85;;;;;;;10.81;70.83;99404.94;5095391;28;20075;-64
2021/04/11 05:30:42;;;;;;;7.70;6.47;;;;;;;10.85;70.26;99410.63;5095581;28;20056;-64
2021/04/11 05:33:13;;;;;;;8.38;6.20;;;;;;;10.76;69.94;99410.72;5094903;28;20051;-63
2021/04/11 05:35:44;;;;;;;8.57;7.00;;;;;;;10.77;70.27;99417.91;5095032;28;20063;-63
2021/04/11 05:38:20;;;;;;;8.98;6.88;;;;;;;10.72;70.69;99416.16;5094441;28;20055;-64
2021/04/11 05:40:53;;;;;;;11.50;7.22;;;;;;;10.72;70.92;99429.25;5074513;28;20147;-64
2021/04/11 05:43:28;;;;;;;10.95;6.63;;;;;;;10.72;70.33;99437.63;5073841;28;20512;-64
2021/04/11 05:46:03;;;;;;;7.40;4.82;;;;;;;10.70;70.01;99437.16;5074428;28;20048;-64
2021/04/11 05:48:40;;;;;;;4.88;3.63;;;;;;;10.67;69.71;99435.88;5074575;28;20052;-64
2021/04/11 05:51:13;;;;;;;4.93;3.38;;;;;;;10.67;69.63;99443.41;5074391;28;20048;-64
2021/04/11 05:53:49;;;;;;;4.68;3.50;;;;;;;10.63;69.10;99451.63;5081722;28;20489;-64
2021/04/11 05:56:23;;;;;;;4.85;4.10;;;;;;;10.58;69.26;99457.38;5094101;28;20059;-64
2021/04/11 05:58:55;;;;;;;4.32;3.80;;;;;;;10.55;69.06;99464.44;5093811;28;20056;-64
2021/04/11 06:01:26;;;;;;;5.53;4.20;;;;;;;10.47;69.54;99472.88;5093898;28;20417;-64
2021/04/11 06:03:58;;;;;;;7.93;4.78;;;;;;;10.50;69.66;99484.16;5094051;28;20059;-64
2021/04/11 06:06:32;;;;;;;6.90;5.80;;;;;;;10.49;68.69;99499.22;5094224;28;20055;-64
2021/04/11 06:09:05;;;;;;;8.43;6.97;;;;;;;10.41;68.69;99502.88;5094119;28;20078;-63
2021/04/11 06:11:38;;;;;;;10.15;8.05;;;;;;;10.34;67.94;99508.16;5094047;28;20063;-63
2021/04/11 06:14:09;;;;;;;10.80;8.75;;;;;;;10.24;68.01;99508.50;5093835;28;20052;-63
2021/04/11 06:16:37;;;;;;;12.43;9.95;;;;;;;10.11;68.05;99516.75;5093950;28;20055;-63
2021/04/11 06:19:07;;;;;;;11.60;9.23;;;;;;;10.08;68.49;99523.00;5093708;28;20055;-63
2021/04/11 06:21:50;;;;;;;10.18;8.98;;;;;;;10.10;68.49;99519.88;5093849;28;20048;-63
2021/04/11 06:24:27;;;;;;;14.43;11.45;;;;;;;10.08;68.20;99511.88;5093231;28;20070;-63
2021/04/11 06:27:02;;;;;;;12.05;10.35;;;;;;;10.04;67.41;99522.03;5093418;28;20059;-64
2021/04/11 06:29:36;;;;;;;13.68;10.93;;;;;;;10.01;67.04;99522.69;5091980;28;20051;-64
2021/04/11 06:32:07;;;;;;;12.95;11.18;;;;;;;9.95;67.16;99529.59;5093323;28;20416;-64
2021/04/11 06:34:38;;;;;;;15.40;11.50;;;;;;;9.86;67.31;99532.41;5093184;28;20059;-64
2021/04/11 06:37:09;;;;;;;16.33;12.88;;;;;;;9.75;67.53;99536.72;5093617;28;20056;-64
2021/04/11 06:39:43;;;;;;;16.48;12.70;;;;;;;9.75;67.26;99537.53;5093962;28;20044;-63
2021/04/11 06:42:43;;;;;;;18.38;14.02;;;;;;;9.75;67.20;99539.50;5092973;28;20051;-63
2021/04/11 06:45:18;;;;;;;20.35;14.98;;;;;;;9.72;67.88;99540.97;5093661;28;20068;-63
2021/04/11 06:48:07;;;;;;;22.60;16.35;;;;;;;9.73;67.06;99542.59;5093176;28;20055;-63
2021/04/11 06:51:07;;;;;;;25.58;17.85;;;;;;;9.73;67.56;99561.25;5091528;28;20381;-63
2021/04/11 06:53:47;;;;;;;28.15;18.35;;;;;;;9.70;66.92;99573.88;5092253;28;20048;-63
2021/04/11 06:56:45;;;;;;;25.77;17.35;;;;;;;9.57;67.25;99569.28;5092401;28;20048;-63
2021/04/11 06:59:28;;;;;;;21.63;15.20;;;;;;;9.50;67.01;99571.78;5092484;28;20059;-62
2021/04/11 07:02:26;;;;;;;19.15;14.18;;;;;;;9.43;66.68;99571.44;5092748;28;20056;-62
2021/04/11 07:05:13;;;;;;;19.80;14.10;;;;;;;9.32;66.66;99584.84;5079570;28;20048;-63
2021/04/11 07:08:24;;;;;;;16.90;12.90;;;;;;;9.15;67.42;99591.22;5072761;28;20061;-62
2021/04/11 07:11:23;;;;;;;16.40;12.73;;;;;;;9.12;67.00;99601.03;5010846;28;20061;-62
2021/04/11 07:14:27;;;;;;;14.77;12.43;;;;;;;9.10;67.17;99597.78;5010303;28;20045;-63
2021/04/11 07:17:48;;;;;;;16.65;12.90;;;;;;;9.06;66.63;99594.00;5071816;28;20056;-62
2021/04/11 07:20:40;;;;;;;16.90;13.27;;;;;;;9.05;67.23;99599.88;4973137;28;20054;-61
2021/04/11 07:23:39;;;;;;;15.85;13.07;;;;;;;8.98;66.96;99602.34;5081799;28;20063;-62
2021/04/11 07:26:41;;;;;;;20.23;15.43;;;;;;;8.90;67.29;99603.97;5072589;28;20059;-62
2021/04/11 07:29:19;;;;;;;20.63;15.27;;;;;;;8.90;66.81;99603.97;5030315;28;20049;-62
2021/04/11 07:32:10;;;;;;;21.35;16.95;;;;;;;8.87;67.58;99607.41;5067391;28;20052;-62
2021/04/11 07:34:53;;;;;;;22.52;16.92;;;;;;;8.83;67.46;99612.78;5087467;28;20126;-62
2021/04/11 07:37:37;;;;;;;23.05;17.63;;;;;;;8.83;67.41;99612.78;5091943;28;20060;-63
2021/04/11 07:40:20;;;;;;;21.45;16.83;;;;;;;8.87;66.49;99618.50;5091653;28;20059;-62
2021/04/11 07:43:02;;;;;;;20.60;16.05;;;;;;;8.91;66.58;99613.94;5071690;28;20103;-62
2021/04/11 07:45:53;;;;;;;22.08;16.77;;;;;;;9.00;65.58;99628.66;5071766;28;20481;-62
2021/04/11 07:48:40;;;;;;;24.15;17.45;;;;;;;8.97;64.86;99631.28;5072291;28;20049;-62
2021/04/11 07:51:22;;;;;;;27.17;19.10;;;;;;;8.89;65.04;99638.44;5090839;28;20120;-61
2021/04/11 07:54:08;;;;;;;24.48;18.83;;;;;;;8.80;65.80;99649.53;5091945;28;20047;-62
2021/04/11 07:56:54;;;;;;;29.25;20.83;;;;;;;8.79;65.97;99638.75;5091557;28;20051;-62
2021/04/11 07:59:37;;;;;;;26.92;19.58;;;;;;;8.80;65.69;99646.75;5091933;28;20059;-62
2021/04/11 08:02:19;;;;;;;26.75;20.27;;;;;;;8.77;65.42;99652.13;5093230;28;20056;-62
2021/04/11 08:05:14;;;;;;;26.23;19.13;;;;;;;8.78;65.86;99660.16;5096395;28;20059;-62
2021/04/11 08:08:10;;;;;;;28.48;19.95;;;;;;;8.75;66.49;99671.88;5090495;28;20059;-62
2021/04/11 08:11:01;;;;;;;27.25;20.67;;;;;;;8.73;66.12;99679.72;5087336;28;20056;-63
2021/04/11 08:13:58;;;;;;;28.58;20.75;;;;;;;8.69;65.63;99673.16;5076308;28;20048;-62
2021/04/11 08:16:59;;;;;;;28.05;20.80;;;;;;;8.67;66.47;99681.00;5041313;28;20075;-62
2021/04/11 08:19:53;;;;;;;25.27;18.55;;;;;;;8.65;65.61;99683.28;5071003;28;20374;-62
2021/04/11 08:22:48;;;;;;;25.75;19.73;;;;;;;8.63;66.06;99696.66;5075391;28;20386;-62
2021/04/11 08:25:28;;;;;;;24.30;18.77;;;;;;;8.61;65.77;99693.38;5080233;28;20064;-64
2021/04/11 08:28:35;;;;;;;20.25;16.60;;;;;;;8.56;65.57;99697.13;5075594;28;20075;-62
2021/04/11 08:31:35;;;;;;;20.17;15.88;;;;;;;8.54;64.76;99702.97;5075464;28;20432;-62
2021/04/11 08:34:31;;;;;;;20.33;15.57;;;;;;;8.47;65.48;99699.84;5095302;28;20040;-62
2021/04/11 08:37:40;;;;;;;18.27;14.68;;;;;;;8.45;64.92;99707.69;5094056;28;20047;-63
2021/04/11 08:40:24;;;;;;;16.50;13.70;;;;;;;8.47;65.43;99707.38;5092359;28;20143;-62
2021/04/11 08:43:11;;;;;;;18.25;14.77;;;;;;;8.39;66.04;99714.47;5094942;28;20063;-62
2021/04/11 08:45:57;;;;;;;21.73;16.40;;;;;;;8.45;66.86;99724.34;5095835;28;20048;-62
2021/04/11 08:48:39;;;;;;;24.35;18.00;;;;;;;8.46;67.01;99731.53;5083136;28;20055;-62
2021/04/11 08:51:15;;;;;;;22.58;18.10;;;;;;;8.50;66.41;99729.78;5093689;28;20056;-62
2021/04/11 08:53:53;;;;;;;21.98;18.23;;;;;;;8.56;65.83;99735.16;5088828;28;20067;-63
2021/04/11 08:56:26;;;;;;;19.80;16.02;;;;;;;8.57;66.65;99739.56;5076122;28;20089;-63
2021/04/11 08:59:01;;;;;;;22.13;17.10;;;;;;;8.56;65.94;99740.72;5094638;28;20048;-62
2021/04/11 09:01:40;;;;;;;24.92;19.15;;;;;;;8.60;65.78;99742.53;5090194;28;20500;-63
2021/04/11 09:04:18;;;;;;;27.38;20.10;;;;;;;8.59;65.14;99751.16;5078899;28;20071;-63
2021/04/11 09:07:13;;;;;;;25.05;18.48;;;;;;;8.56;64.72;99757.38;5089364;28;20055;-63
2021/04/11 09:09:57;;;;;;;22.17;16.88;;;;;;;8.52;65.33;99762.72;5091871;28;20063;-64
2021/04/11 09:12:35;;;;;;;24.88;18.77;;;;;;;8.49;65.93;99769.75;5088325;28;20063;-63
2021/04/11 09:15:12;;;;;;;22.40;17.05;;;;;;;8.49;64.62;99768.94;5092721;28;20381;-63
2021/04/11 09:18:01;;;;;;;22.13;17.33;;;;;;;8.49;65.24;99768.94;5092577;28;20493;-63
2021/04/11 09:20:35;;;;;;;20.63;16.55;;;;;;;8.49;65.15;99775.28;5091127;28;20055;-63
2021/04/11 09:23:36;;;;;;;19.33;15.52;;;;;;;8.48;65.42;99772.81;5092186;28;20044;-63
2021/04/11 09:26:29;;;;;;;18.77;15.05;;;;;;;8.52;64.55;99780.22;5058193;28;20056;-64
2021/04/11 09:29:08;;;;;;;18.35;14.55;;;;;;;8.46;65.97;99787.03;5082773;28;20048;-64
2021/04/11 09:31:41;;;;;;;17.10;13.63;;;;;;;8.49;65.63;99789.16;5093934;28;20487;-63
2021/04/11 09:34:38;;;;;;;14.50;11.82;;;;;;;8.56;63.98;99782.34;5092235;28;20478;-63
2021/04/11 09:37:29;;;;;;;12.50;10.60;;;;;;;8.62;63.87;99794.97;5093144;28;20056;-63
2021/04/11 09:40:14;;;;;;;12.38;10.63;;;;;;;8.80;63.97;99795.84;5088588;28;20052;-64
2021/04/11 09:43:05;;;;;;;12.45;10.35;;;;;;;8.97;64.44;99800.69;5091254;28;20477;-65
2021/04/11 09:45:50;;;;;;;14.48;11.50;;;;;;;9.01;65.51;99802.50;5090666;28;20048;-64
2021/04/11 09:48:34;;;;;;;11.55;9.75;;;;;;;9.11;63.60;99812.50;5086728;28;20048;-64
2021/04/11 09:51:14;;;;;;;11.43;9.02;;;;;;;9.21;63.00;99811.41;5092764;28;20408;-63
2021/04/11 09:54:03;;;;;;;11.10;8.60;;;;;;;9.22;62.50;99816.66;5091448;28;20052;-64
2021/04/11 09:56:45;;;;;;;8.93;7.70;;;;;;;9.19;62.39;99811.72;5090723;28;20052;-63
2021/04/11 09:59:42;;;;;;;8.25;6.75;;;;;;;9.27;61.65;99816.50;5090259;28;20051;-63
2021/04/11 10:02:28;;;;;;;7.68;6.47;;;;;;;9.42;60.90;99826.34;5085943;28;20056;-62
2021/04/11 10:05:16;;;;;;;8.00;6.60;;;;;;;9.42;61.80;99823.56;5092114;28;20040;-62
2021/04/11 10:08:05;;;;;;;7.25;6.45;;;;;;;9.43;62.44;99827.16;5072293;28;20075;-62
2021/04/11 10:10:42;;;;;;;7.50;5.90;;;;;;;9.47;62.80;99831.78;4960660;28;3268087;-62
2021/04/11 10:13:31;;;;;;;7.35;6.40;;;;;;;9.46;62.11;99823.75;5073868;28;20083;-60
2021/04/11 10:16:12;;;;;;;7.43;5.43;;;;;;;9.49;62.63;99831.44;5089955;28;20060;-60
2021/04/11 10:18:55;;;;;;;4.90;3.22;;;;;;;9.46;61.91;99832.09;5092174;28;20055;-62
2021/04/11 10:21:29;;;;;;;6.57;2.85;;;;;;;9.37;61.60;99832.06;5094091;28;20051;-62
2021/04/11 10:24:35;;;;;;;2.42;2.22;;;;;;;9.41;61.13;99833.06;5088474;28;20469;-63
2021/04/11 10:27:07;;;;;;;2.40;1.90;;;;;;;9.57;60.26;99840.94;5070277;28;20052;-64
2021/04/11 10:29:42;;;;;;;2.42;2.10;;;;;;;9.68;60.88;99831.13;5085762;28;20048;-63
2021/04/11 10:32:17;;;;;;;2.10;1.90;;;;;;;9.69;60.86;99839.16;5090178;28;20059;-62
2021/04/11 10:34:54;;;;;;;2.90;2.50;;;;;;;9.65;59.98;99848.47;5094047;28;20055;-62
2021/04/11 10:37:25;;;;;;;2.63;2.00;;;;;;;9.55;61.18;99852.38;5093425;28;20059;-62
2021/04/11 10:40:09;;;;;;;2.65;2.22;;;;;;;9.47;61.28;99853.16;5092452;28;20319;-62
2021/04/11 10:42:49;;;;;;;2.92;2.20;;;;;;;9.41;60.99;99862.78;5087016;28;20051;-63
2021/04/11 10:45:28;;;;;;;2.45;2.03;;;;;;;9.35;60.70;99865.72;5093328;28;20054;-63
2021/04/11 10:48:28;;;;;;;2.72;2.13;;;;;;;9.33;60.44;99873.56;5093287;28;20059;-62
2021/04/11 10:51:12;;;;;;;4.78;3.78;;;;;;;9.33;59.57;99865.22;5092946;28;20062;-62
2021/04/11 10:54:00;;;;;;;3.42;2.78;;;;;;;9.29;59.86;99874.53;5092705;28;20054;-62
2021/04/11 10:56:39;;;;;;;5.43;4.03;;;;;;;9.32;60.14;99876.66;5092338;28;20051;-62
2021/04/11 10:59:31;;;;;;;4.63;3.90;;;;;;;9.31;61.01;99894.50;5093329;28;20051;-62
2021/04/11 11:02:31;;;;;;;4.78;3.70;;;;;;;9.21;60.69;99895.56;5092786;28;20051;-62
2021/04/11 11:05:24;;;;;;;4.82;3.80;;;;;;;9.09;60.74;99903.69;5092942;28;20055;-62
2021/04/11 11:08:01;;;;;;;4.45;3.80;;;;;;;9.04;61.87;99910.19;5072556;28;20401;-62
2021/04/11 11:10:39;;;;;;;3.90;3.47;;;;;;;9.08;61.39;99910.38;5075330;28;20052;-62
2021/04/11 11:13:26;;;;;;;3.53;2.75;;;;;;;9.06;61.28;99909.88;5093294;28;20048;-62
2021/04/11 11:16:04;;;;;;;3.42;2.72;;;;;;;9.03;61.08;99918.84;5092780;28;20056;-61
2021/04/11 11:18:54;;;;;;;4.18;3.03;;;;;;;8.94;61.18;99922.41;5092656;28;20059;-62
2021/04/11 11:22:01;;;;;;;4.68;3.08;;;;;;;8.88;61.97;99915.34;5092593;28;20051;-62
2021/04/11 11:25:02;;;;;;;3.17;2.25;;;;;;;8.75;61.76;99930.09;5092259;28;20040;-62
2021/04/11 11:28:04;;;;;;;2.60;2.22;;;;;;;8.84;61.97;99931.00;5078231;28;20511;-62
2021/04/11 11:31:03;;;;;;;4.10;2.92;;;;;;;8.92;61.70;99944.13;5072322;28;20405;-62
2021/04/11 11:33:48;;;;;;;3.60;3.25;;;;;;;8.94;60.74;99943.78;5071780;28;20052;-62
2021/04/11 11:36:30;;;;;;;3.90;3.42;;;;;;;8.98;61.81;99944.00;5072152;28;20055;-62
2021/04/11 11:39:07;;;;;;;4.82;4.22;;;;;;;9.01;61.88;99946.97;5075535;28;20101;-62
2021/04/11 11:41:49;;;;;;;4.28;3.80;;;;;;;9.03;61.37;99946.63;5092486;28;20047;-63
2021/04/11 11:44:22;;;;;;;3.25;2.95;;;;;;;8.93;61.32;99931.88;5092137;28;20059;-62
2021/04/11 11:46:55;;;;;;;2.53;2.20;;;;;;;8.96;60.58;99943.47;5092153;28;20064;-62
2021/04/11 11:49:26;;;;;;;3.67;2.42;;;;;;;8.90;61.27;99945.56;5090701;28;20048;-62
2021/04/11 11:52:01;;;;;;;4.03;2.60;;;;;;;8.92;61.82;99954.41;5089776;28;20055;-62
2021/04/11 11:54:35;;;;;;;2.40;1.80;;;;;;;9.00;61.54;99952.81;5089765;28;20400;-63
2021/04/11 11:57:11;;;;;;;2.42;1.80;;;;;;;9.10;60.89;99966.47;5092784;28;20413;-62
2021/04/11 11:59:42;;;;;;;2.70;1.80;;;;;;;9.13;62.13;99963.03;5093230;28;20052;-65
2021/04/11 12:02:22;;;;;;;2.58;1.95;;;;;;;9.13;61.58;99975.00;5090773;28;20059;-61
2021/04/11 12:05:06;;;;;;;2.58;1.90;;;;;;;9.13;61.52;99979.69;5072638;28;20048;-61
2021/04/11 12:07:38;;;;;;;2.05;1.73;;;;;;;9.16;61.84;99987.41;5091887;28;20052;-60
2021/04/11 12:10:19;;;;;;;2.85;1.90;;;;;;;9.15;62.17;99991.31;5091760;28;20052;-61
2021/04/11 12:13:17;;;;;;;2.25;1.70;;;;;;;9.25;61.01;99995.81;5092245;28;20052;-60
2021/04/11 12:15:57;;;;;;;1.98;1.70;;;;;;;9.35;60.34;99988.03;5071979;28;20055;-60
2021/04/11 12:18:28;;;;;;;2.17;1.60;;;;;;;9.46;61.02;99990.53;5072422;28;20060;-60
2021/04/11 12:21:07;;;;;;;2.10;1.70;;;;;;;9.57;60.72;99997.44;5071546;28;20052;-60